createdAt,value
2022-12-03T00:01:32.334Z,83.75
2022-12-03T00:04:00.541Z,82.16
2022-12-03T00:06:34.384Z,83.00
2022-12-03T00:09:03.702Z,82.76
2022-12-03T00:11:31.832Z,83.32
2022-12-03T00:13:59.821Z,82.55
2022-12-03T00:16:27.778Z,82.48
2022-12-03T00:18:55.766Z,83.09
2022-12-03T00:21:24.819Z,83.37
2022-12-03T00:23:52.792Z,82.43
2022-12-03T00:26:21.087Z,82.63
2022-12-03T00:28:49.691Z,82.63
2022-12-03T00:31:17.925Z,83.16
2022-12-03T00:33:46.009Z,82.59
2022-12-03T00:36:13.920Z,82.33
2022-12-03T00:38:42.237Z,82.96
2022-12-03T00:41:10.280Z,82.65
2022-12-03T00:43:38.252Z,82.54
2022-12-03T00:46:06.336Z,81.67
2022-12-03T00:48:34.415Z,80.52
2022-12-03T00:51:02.235Z,80.15
2022-12-03T00:53:30.137Z,80.97
2022-12-03T00:55:58.028Z,80.41
2022-12-03T00:58:25.942Z,79.79
2022-12-03T01:00:53.873Z,79.71
2022-12-03T01:03:21.954Z,79.56
2022-12-03T01:05:49.795Z,79.40
2022-12-03T01:08:17.829Z,80.26
2022-12-03T01:10:45.726Z,80.17
2022-12-03T01:13:13.811Z,80.33
2022-12-03T01:15:42.061Z,79.84
2022-12-03T01:18:09.936Z,79.64
2022-12-03T01:20:38.870Z,79.28
2022-12-03T01:23:06.857Z,79.19
2022-12-03T01:25:34.973Z,79.42
2022-12-03T01:28:02.876Z,78.28
2022-12-03T01:30:51.148Z,78.45
2022-12-03T01:33:19.209Z,79.74
2022-12-03T01:35:47.020Z,79.93
2022-12-03T01:38:14.898Z,79.37
2022-12-03T01:40:42.944Z,79.08
2022-12-03T01:43:11.292Z,79.34
2022-12-03T01:45:39.336Z,79.25
2022-12-03T01:48:07.233Z,79.43
2022-12-03T01:50:35.223Z,78.87
2022-12-03T01:53:04.215Z,78.66
2022-12-03T01:55:32.292Z,78.91
2022-12-03T01:58:02.310Z,78.86
2022-12-03T02:00:30.989Z,79.79
2022-12-03T02:03:08.647Z,79.38
2022-12-03T02:05:37.661Z,79.84
2022-12-03T02:08:27.107Z,79.90
2022-12-03T02:10:55.204Z,79.71
2022-12-03T02:13:23.381Z,80.38
2022-12-03T02:15:51.484Z,80.65
2022-12-03T02:18:19.928Z,80.09
2022-12-03T02:21:03.196Z,80.18
2022-12-03T02:23:43.061Z,80.92
2022-12-03T02:26:11.142Z,81.05
2022-12-03T02:28:39.026Z,81.08
2022-12-03T02:31:07.490Z,81.33
2022-12-03T02:33:36.692Z,80.30
2022-12-03T02:36:04.984Z,80.05
2022-12-03T02:38:34.070Z,79.98
2022-12-03T02:41:07.979Z,79.87
2022-12-03T02:43:37.404Z,79.81
2022-12-03T02:46:08.544Z,79.33
2022-12-03T02:48:39.940Z,79.20
2022-12-03T02:51:10.482Z,78.86
2022-12-03T02:53:45.024Z,79.71
2022-12-03T02:56:17.194Z,79.07
2022-12-03T03:01:13.092Z,79.37
2022-12-03T03:03:41.497Z,79.89
2022-12-03T03:06:13.130Z,80.03
2022-12-03T03:08:42.663Z,80.29
2022-12-03T03:11:11.585Z,80.95
2022-12-03T03:13:40.140Z,80.06
2022-12-03T03:16:08.838Z,80.57
2022-12-03T03:18:37.337Z,79.95
2022-12-03T03:21:06.533Z,80.88
2022-12-03T03:23:34.507Z,80.85
2022-12-03T03:26:08.794Z,80.63
2022-12-03T03:28:41.340Z,81.00
2022-12-03T03:31:13.157Z,80.41
2022-12-03T03:33:45.348Z,80.02
2022-12-03T03:36:15.046Z,80.70
2022-12-03T03:38:43.088Z,80.60
2022-12-03T03:41:12.757Z,81.27
2022-12-03T03:43:42.919Z,80.65
2022-12-03T03:46:12.141Z,80.92
2022-12-03T03:48:41.702Z,80.37
2022-12-03T03:51:11.326Z,80.68
2022-12-03T03:53:43.067Z,80.71
2022-12-03T03:56:11.719Z,80.61
2022-12-03T03:58:39.745Z,80.76
2022-12-03T04:01:07.991Z,81.40
2022-12-03T04:03:36.596Z,80.38
2022-12-03T04:06:07.716Z,80.90
2022-12-03T04:08:36.677Z,81.51
2022-12-03T04:11:22.790Z,82.14
2022-12-03T04:13:50.938Z,82.72
2022-12-03T04:16:18.926Z,83.37
2022-12-03T04:18:48.124Z,83.79
2022-12-03T04:21:52.986Z,84.54
2022-12-03T04:24:20.895Z,84.11
2022-12-03T04:27:07.033Z,84.46
2022-12-03T04:29:35.092Z,84.66
2022-12-03T04:32:21.619Z,84.26
2022-12-03T04:35:08.121Z,84.46
2022-12-03T04:37:36.263Z,84.64
2022-12-03T04:40:24.649Z,84.57
2022-12-03T04:42:53.399Z,83.98
2022-12-03T04:45:23.312Z,83.57
2022-12-03T04:47:51.235Z,83.17
2022-12-03T04:50:19.140Z,82.10
2022-12-03T04:52:47.070Z,82.06
2022-12-03T04:55:15.038Z,81.99
2022-12-03T04:57:43.120Z,81.51
2022-12-03T05:00:11.974Z,80.87
2022-12-03T05:02:42.756Z,81.50
2022-12-03T05:05:11.247Z,81.82
2022-12-03T05:07:39.314Z,81.21
2022-12-03T05:10:07.836Z,81.56
2022-12-03T05:12:35.905Z,80.81
2022-12-03T05:15:04.936Z,81.09
2022-12-03T05:17:32.882Z,81.60
2022-12-03T05:20:19.168Z,81.53
2022-12-03T05:22:47.475Z,80.92
2022-12-03T05:25:15.308Z,81.46
2022-12-03T05:27:43.196Z,81.79
2022-12-03T05:30:11.453Z,81.29
2022-12-03T05:32:39.408Z,81.05
2022-12-03T05:35:10.343Z,81.71
2022-12-03T05:37:38.247Z,81.32
2022-12-03T05:40:07.399Z,81.21
2022-12-03T05:42:53.791Z,81.57
2022-12-03T05:45:29.072Z,80.82
2022-12-03T05:48:15.111Z,80.68
2022-12-03T05:50:44.807Z,81.17
2022-12-03T05:53:17.648Z,81.30
2022-12-03T05:55:45.749Z,81.66
2022-12-03T05:58:13.975Z,81.35
2022-12-03T06:00:42.995Z,81.15
2022-12-03T06:03:11.467Z,81.30
2022-12-03T06:05:39.716Z,81.58
2022-12-03T06:08:07.796Z,81.30
2022-12-03T06:10:35.761Z,81.99
2022-12-03T06:13:04.049Z,81.81
2022-12-03T06:15:32.101Z,82.05
2022-12-03T06:18:03.709Z,81.28
2022-12-03T06:20:31.652Z,81.59
2022-12-03T06:22:59.783Z,81.15
2022-12-03T06:25:27.796Z,81.09
2022-12-03T06:27:55.658Z,81.43
2022-12-03T06:30:23.715Z,82.11
2022-12-03T06:32:51.849Z,82.14
2022-12-03T06:35:20.162Z,82.66
2022-12-03T06:37:50.288Z,82.40
2022-12-03T06:40:19.101Z,83.01
2022-12-03T06:42:47.070Z,83.04
2022-12-03T06:45:15.195Z,84.21
2022-12-03T06:47:43.202Z,83.37
2022-12-03T06:50:11.715Z,83.11
2022-12-03T06:52:39.736Z,84.30
2022-12-03T06:55:08.194Z,83.62
2022-12-03T06:57:36.155Z,83.57
2022-12-03T07:00:06.547Z,83.75
2022-12-03T07:02:35.058Z,84.28
2022-12-03T07:05:03.432Z,84.03
2022-12-03T07:07:32.831Z,85.36
2022-12-03T07:10:01.112Z,84.98
2022-12-03T07:12:29.029Z,84.44
2022-12-03T07:14:57.315Z,84.05
2022-12-03T07:17:25.415Z,83.91
2022-12-03T07:19:53.400Z,84.20
2022-12-03T07:22:21.357Z,83.96
2022-12-03T07:24:49.581Z,84.33
2022-12-03T07:27:17.931Z,84.08
2022-12-03T07:29:46.143Z,83.56
2022-12-03T07:32:14.688Z,83.85
2022-12-03T07:34:43.121Z,84.12
2022-12-03T07:37:11.130Z,84.16
2022-12-03T07:39:41.439Z,83.31
2022-12-03T07:42:09.931Z,83.19
2022-12-03T07:44:38.111Z,83.55
2022-12-03T07:47:06.125Z,83.58
2022-12-03T07:49:34.167Z,83.14
2022-12-03T07:52:02.157Z,84.01
2022-12-03T07:54:30.294Z,85.18
2022-12-03T07:57:01.668Z,84.26
2022-12-03T07:59:30.242Z,83.99
2022-12-03T08:01:58.615Z,84.22
2022-12-03T08:04:26.729Z,84.13
2022-12-03T08:06:54.713Z,84.34
2022-12-03T08:09:22.880Z,85.05
2022-12-03T08:11:51.039Z,84.67
2022-12-03T08:14:21.052Z,85.38
2022-12-03T08:16:49.481Z,84.94
2022-12-03T08:19:18.475Z,84.87
2022-12-03T08:21:46.664Z,85.93
2022-12-03T08:24:21.955Z,86.92
2022-12-03T08:26:50.136Z,86.55
2022-12-03T08:29:20.117Z,87.12
2022-12-03T08:31:52.518Z,88.00
2022-12-03T08:34:28.101Z,86.74
2022-12-03T08:37:01.749Z,87.20
2022-12-03T08:39:35.112Z,87.12
2022-12-03T08:42:38.458Z,87.11
2022-12-03T08:45:40.433Z,86.38
2022-12-03T08:48:29.822Z,87.02
2022-12-03T08:51:03.457Z,87.15
2022-12-03T08:53:42.212Z,87.03
2022-12-03T08:56:19.993Z,85.90
2022-12-03T08:58:53.391Z,85.74
2022-12-03T09:01:27.273Z,85.63
2022-12-03T09:03:58.987Z,85.92
2022-12-03T09:06:26.983Z,83.98
2022-12-03T09:08:55.102Z,84.15
2022-12-03T09:11:23.030Z,83.16
2022-12-03T09:13:52.011Z,82.62
2022-12-03T09:16:20.240Z,82.32
2022-12-03T09:18:48.323Z,81.99
2022-12-03T09:21:16.693Z,81.35
2022-12-03T09:23:44.868Z,80.54
2022-12-03T09:26:13.002Z,81.37
2022-12-03T09:28:42.221Z,80.74
2022-12-03T09:31:11.020Z,81.58
2022-12-03T09:33:39.647Z,83.00
2022-12-03T09:36:07.704Z,82.66
2022-12-03T09:38:36.331Z,81.64
2022-12-03T09:41:06.839Z,81.36
2022-12-03T09:44:02.612Z,81.44
2022-12-03T09:46:23.930Z,80.89
2022-12-03T09:48:52.340Z,80.28
2022-12-03T09:51:20.735Z,79.43
2022-12-03T09:53:49.137Z,79.54
2022-12-03T09:56:22.632Z,79.83
2022-12-03T09:58:50.843Z,79.00
2022-12-03T10:01:19.482Z,79.39
2022-12-03T10:03:50.620Z,80.37
2022-12-03T10:06:21.606Z,80.48
2022-12-03T10:08:53.987Z,79.25
2022-12-03T10:11:25.499Z,78.93
2022-12-03T10:13:56.818Z,78.92
2022-12-03T10:16:27.271Z,78.71
2022-12-03T10:18:59.000Z,77.87
2022-12-03T10:21:38.108Z,78.59
2022-12-03T10:24:22.438Z,78.77
2022-12-03T10:26:52.628Z,77.90
2022-12-03T10:29:34.362Z,78.14
2022-12-03T10:32:09.386Z,79.89
2022-12-03T10:34:41.124Z,78.73
2022-12-03T10:37:16.648Z,79.16
2022-12-03T10:40:02.742Z,78.63
2022-12-03T10:42:33.862Z,78.37
2022-12-03T10:45:22.921Z,78.87
2022-12-03T10:48:19.634Z,78.63
2022-12-03T10:50:56.619Z,78.13
2022-12-03T10:53:29.188Z,77.28
2022-12-03T10:56:00.720Z,77.74
2022-12-03T10:58:34.561Z,77.17
2022-12-03T11:01:13.952Z,77.59
2022-12-03T11:03:42.814Z,78.73
2022-12-03T11:06:22.503Z,78.89
2022-12-03T11:08:58.409Z,78.85
2022-12-03T11:11:31.119Z,78.69
2022-12-03T11:14:01.984Z,77.51
2022-12-03T11:16:42.049Z,79.43
2022-12-03T11:19:12.840Z,80.07
2022-12-03T11:22:05.553Z,79.78
2022-12-03T11:24:36.561Z,78.47
2022-12-03T11:27:07.162Z,78.89
2022-12-03T11:29:59.906Z,77.68
2022-12-03T11:32:43.313Z,79.58
2022-12-03T11:35:11.774Z,78.61
2022-12-03T11:37:40.077Z,78.65
2022-12-03T11:40:17.330Z,78.85
2022-12-03T11:42:47.229Z,78.54
2022-12-03T11:45:38.287Z,78.14
2022-12-03T11:48:16.299Z,77.95
2022-12-03T11:50:52.063Z,77.86
2022-12-03T11:53:25.172Z,77.73
2022-12-03T11:56:13.368Z,77.30
2022-12-03T11:58:45.597Z,77.14
2022-12-03T12:01:16.485Z,76.70
2022-12-03T12:03:48.790Z,77.90
2022-12-03T12:06:19.890Z,77.23
2022-12-03T12:08:59.728Z,78.20
2022-12-03T12:11:36.369Z,77.21
2022-12-03T12:14:12.629Z,77.88
2022-12-03T12:16:55.655Z,77.22
2022-12-03T12:19:34.901Z,77.35
2022-12-03T12:22:21.289Z,76.89
2022-12-03T12:24:55.259Z,77.10
2022-12-03T12:27:32.801Z,77.66
2022-12-03T12:30:05.752Z,78.54
2022-12-03T12:32:50.507Z,78.81
2022-12-03T12:35:30.980Z,78.47
2022-12-03T12:38:08.847Z,78.18
2022-12-03T12:40:42.796Z,78.33
2022-12-03T12:43:15.285Z,78.38
2022-12-03T12:45:45.213Z,79.66
2022-12-03T12:48:16.522Z,79.15
2022-12-03T12:50:48.376Z,80.00
2022-12-03T12:53:29.955Z,80.49
2022-12-03T12:56:08.591Z,81.15
2022-12-03T12:58:37.080Z,80.40
2022-12-03T13:01:11.564Z,79.97
2022-12-03T13:03:40.814Z,80.56
2022-12-03T13:06:16.077Z,80.20
2022-12-03T13:08:47.609Z,80.86
2022-12-03T13:11:34.999Z,80.98
2022-12-03T13:14:11.441Z,81.13
2022-12-03T13:16:40.999Z,81.28
2022-12-03T13:19:43.323Z,80.96
2022-12-03T13:22:21.511Z,80.57
2022-12-03T13:24:52.089Z,80.89
2022-12-03T13:27:20.563Z,81.72
2022-12-03T13:29:57.659Z,81.00
2022-12-03T13:32:36.642Z,80.77
2022-12-03T13:35:32.248Z,81.15
2022-12-03T13:38:00.665Z,81.48
2022-12-03T13:40:32.270Z,82.53
2022-12-03T13:43:04.415Z,82.09
2022-12-03T13:45:37.961Z,81.75
2022-12-03T13:48:36.025Z,82.23
2022-12-03T13:51:26.577Z,83.31
2022-12-03T13:53:55.287Z,83.23
2022-12-03T13:56:32.524Z,82.72
2022-12-03T13:59:02.466Z,83.33
2022-12-03T14:01:31.202Z,83.68
2022-12-03T14:03:59.727Z,83.37
2022-12-03T14:06:28.232Z,82.38
2022-12-03T14:08:57.010Z,82.76
2022-12-03T14:11:44.033Z,83.60
2022-12-03T14:14:12.281Z,83.06
2022-12-03T14:16:40.826Z,83.82
2022-12-03T14:19:09.274Z,83.54
2022-12-03T14:21:37.576Z,82.95
2022-12-03T14:24:06.524Z,83.63
2022-12-03T14:26:35.351Z,83.04
2022-12-03T14:29:08.601Z,83.23
2022-12-03T14:31:37.605Z,83.80
2022-12-03T14:34:06.147Z,83.76
2022-12-03T14:36:34.662Z,84.44
2022-12-03T14:39:03.207Z,84.87
2022-12-03T14:41:50.447Z,84.37
2022-12-03T14:44:24.898Z,83.72
2022-12-03T14:46:56.988Z,83.25
2022-12-03T14:49:26.187Z,83.59
2022-12-03T14:51:54.689Z,83.48
2022-12-03T14:54:24.378Z,82.54
2022-12-03T14:56:53.144Z,83.29
2022-12-03T14:59:27.244Z,82.83
2022-12-03T15:01:56.711Z,83.19
2022-12-03T15:04:25.368Z,82.88
2022-12-03T15:06:53.887Z,83.06
2022-12-03T15:09:22.266Z,84.05
2022-12-03T15:11:50.692Z,84.36
2022-12-03T15:14:19.135Z,84.32
2022-12-03T15:16:47.514Z,85.09
2022-12-03T15:19:16.382Z,84.64
2022-12-03T15:21:45.091Z,84.26
2022-12-03T15:24:13.626Z,84.51
2022-12-03T15:26:42.155Z,84.73
2022-12-03T15:29:10.685Z,84.03
2022-12-03T15:31:39.225Z,84.51
2022-12-03T15:34:07.727Z,84.65
2022-12-03T15:36:36.343Z,84.16
2022-12-03T15:39:04.874Z,84.67
2022-12-03T15:41:33.541Z,84.79
2022-12-03T15:44:02.598Z,84.71
2022-12-03T15:46:34.607Z,84.68
2022-12-03T15:49:03.047Z,83.98
2022-12-03T15:51:31.605Z,84.82
2022-12-03T15:54:00.267Z,85.97
2022-12-03T15:56:28.778Z,85.56
2022-12-03T15:58:57.250Z,85.29
2022-12-03T16:01:25.804Z,86.09
2022-12-03T16:03:54.331Z,86.17
2022-12-03T16:06:22.741Z,84.89
2022-12-03T16:08:51.254Z,84.85
2022-12-03T16:11:19.930Z,84.43
2022-12-03T16:13:48.462Z,83.69
2022-12-03T16:16:17.210Z,84.61
2022-12-03T16:18:45.821Z,83.65
2022-12-03T16:21:14.382Z,83.72
2022-12-03T16:23:42.807Z,84.17
2022-12-03T16:26:11.130Z,83.67
2022-12-03T16:28:39.623Z,83.54
2022-12-03T16:31:08.052Z,83.88
2022-12-03T16:33:36.725Z,84.08
2022-12-03T16:36:05.675Z,83.35
2022-12-03T16:38:34.461Z,82.81
2022-12-03T16:41:03.610Z,83.95
2022-12-03T16:43:34.559Z,84.35
2022-12-03T16:46:10.518Z,84.10
2022-12-03T16:48:39.107Z,84.04
2022-12-03T16:51:07.929Z,84.39
2022-12-03T16:53:36.509Z,84.09
2022-12-03T16:56:07.299Z,83.33
2022-12-03T16:58:36.001Z,82.95
2022-12-03T17:01:05.213Z,83.22
2022-12-03T17:03:34.332Z,83.08
2022-12-03T17:06:03.551Z,82.60
2022-12-03T17:08:32.639Z,82.14
2022-12-03T17:11:01.105Z,82.15
2022-12-03T17:13:29.540Z,82.17
2022-12-03T17:15:58.179Z,82.12
2022-12-03T17:18:26.112Z,82.27
2022-12-03T17:20:54.133Z,82.58
2022-12-03T17:23:22.231Z,82.64
2022-12-03T17:25:50.589Z,82.59
2022-12-03T17:28:19.362Z,82.70
2022-12-03T17:30:47.831Z,82.13
2022-12-03T17:33:16.430Z,82.35
2022-12-03T17:35:46.284Z,82.74
2022-12-03T17:38:14.976Z,82.97
2022-12-03T17:40:43.638Z,82.89
2022-12-03T17:43:12.164Z,82.50
2022-12-03T17:45:40.937Z,82.99
2022-12-03T17:48:09.795Z,82.95
2022-12-03T17:50:38.429Z,82.91
2022-12-03T17:53:10.676Z,82.70
2022-12-03T17:55:44.563Z,82.94
2022-12-03T17:58:14.304Z,82.43
2022-12-03T18:00:42.787Z,83.16
2022-12-03T18:03:11.336Z,82.78
2022-12-03T18:05:39.660Z,82.98
2022-12-03T18:08:08.547Z,82.65
2022-12-03T18:10:37.032Z,83.12
2022-12-03T18:13:05.619Z,83.36
2022-12-03T18:15:34.059Z,83.32
2022-12-03T18:18:03.023Z,83.18
2022-12-03T18:20:31.921Z,83.30
2022-12-03T18:23:00.959Z,83.21
2022-12-03T18:25:30.125Z,83.82
2022-12-03T18:27:58.469Z,84.27
2022-12-03T18:30:27.005Z,83.84
2022-12-03T18:32:55.582Z,84.03
2022-12-03T18:35:24.334Z,84.77
2022-12-03T18:37:53.076Z,83.56
2022-12-03T18:40:27.491Z,83.69
2022-12-03T18:42:57.471Z,83.74
2022-12-03T18:45:26.254Z,83.40
2022-12-03T18:47:58.033Z,82.72
2022-12-03T18:50:26.469Z,82.73
2022-12-03T18:52:54.834Z,83.36
2022-12-03T18:55:23.346Z,83.08
2022-12-03T18:57:51.840Z,81.99
2022-12-03T19:00:20.648Z,82.17
2022-12-03T19:03:04.957Z,81.79
2022-12-03T19:05:35.899Z,81.07
2022-12-03T19:08:12.701Z,81.60
2022-12-03T19:10:42.839Z,81.56
2022-12-03T19:13:12.328Z,82.05
2022-12-03T19:15:40.944Z,81.52
2022-12-03T19:18:09.345Z,81.66
2022-12-03T19:20:41.511Z,82.00
2022-12-03T19:23:10.640Z,81.95
2022-12-03T19:25:39.103Z,82.67
2022-12-03T19:28:07.565Z,82.94
2022-12-03T19:30:35.916Z,82.78
2022-12-03T19:33:04.391Z,83.56
2022-12-03T19:35:33.873Z,83.56
2022-12-03T19:38:01.952Z,82.96
2022-12-03T19:40:32.465Z,82.95
2022-12-03T19:43:01.005Z,83.46
2022-12-03T19:45:29.409Z,83.36
2022-12-03T19:47:58.145Z,83.48
2022-12-03T19:50:26.616Z,83.49
2022-12-03T19:52:55.113Z,83.73
2022-12-03T19:55:23.842Z,82.57
2022-12-03T19:57:52.222Z,82.69
2022-12-03T20:00:20.986Z,82.17
2022-12-03T20:02:50.458Z,82.29
2022-12-03T20:05:18.897Z,83.11
2022-12-03T20:07:47.093Z,82.95
2022-12-03T20:10:15.565Z,83.75
2022-12-03T20:12:43.972Z,83.06
2022-12-03T20:15:13.980Z,82.50
2022-12-03T20:17:42.494Z,83.27
2022-12-03T20:20:11.288Z,82.80
2022-12-03T20:22:39.697Z,83.35
2022-12-03T20:25:08.703Z,82.91
2022-12-03T20:27:37.806Z,83.67
2022-12-03T20:30:06.943Z,82.69
2022-12-03T20:32:40.567Z,83.47
2022-12-03T20:35:11.896Z,82.86
2022-12-03T20:37:39.862Z,83.57
2022-12-03T20:40:08.675Z,83.72
2022-12-03T20:42:37.084Z,82.38
2022-12-03T20:45:06.203Z,83.53
2022-12-03T20:47:34.455Z,83.57
2022-12-03T20:50:02.935Z,83.89
2022-12-03T20:52:31.014Z,83.84
2022-12-03T20:54:59.792Z,84.08
2022-12-03T20:57:28.224Z,84.14
2022-12-03T20:59:56.857Z,83.99
2022-12-03T21:02:25.677Z,83.97
2022-12-03T21:04:54.343Z,83.30
2022-12-03T21:07:22.858Z,83.95
2022-12-03T21:09:51.491Z,83.89
2022-12-03T21:12:20.057Z,83.65
2022-12-03T21:14:48.446Z,83.99
2022-12-03T21:17:17.057Z,84.05
2022-12-03T21:19:45.951Z,84.09
2022-12-03T21:22:14.449Z,83.53
2022-12-03T21:24:43.365Z,84.00
2022-12-03T21:27:12.267Z,83.58
2022-12-03T21:29:43.250Z,83.04
2022-12-03T21:32:11.786Z,84.07
2022-12-03T21:34:42.148Z,84.32
2022-12-03T21:37:10.670Z,83.44
2022-12-03T21:39:39.076Z,83.22
2022-12-03T21:42:34.487Z,82.78
2022-12-03T21:44:56.283Z,83.25
2022-12-03T21:47:24.431Z,82.53
2022-12-03T21:49:53.017Z,83.15
2022-12-03T21:52:21.422Z,83.24
2022-12-03T21:54:52.640Z,82.81
2022-12-03T21:57:21.033Z,82.56
2022-12-03T21:59:49.038Z,82.52
2022-12-03T22:02:17.102Z,82.33
2022-12-03T22:04:50.460Z,82.24
2022-12-03T22:07:19.085Z,83.03
2022-12-03T22:09:47.079Z,83.41
2022-12-03T22:12:15.152Z,82.46
2022-12-03T22:14:43.022Z,82.98
2022-12-03T22:17:11.036Z,83.39
2022-12-03T22:19:39.957Z,83.15
2022-12-03T22:22:08.117Z,82.61
2022-12-03T22:24:36.021Z,82.92
2022-12-03T22:27:05.303Z,82.38
2022-12-03T22:29:33.498Z,82.58
2022-12-03T22:32:01.449Z,83.01
2022-12-03T22:34:29.713Z,83.28
2022-12-03T22:36:57.626Z,83.67
2022-12-03T22:39:25.658Z,83.95
2022-12-03T22:41:53.466Z,83.42
2022-12-03T22:44:21.416Z,83.47
2022-12-03T22:46:49.726Z,83.28
2022-12-03T22:49:17.792Z,83.49
2022-12-03T22:51:46.858Z,83.48
2022-12-03T22:54:18.171Z,84.09
2022-12-03T22:56:48.997Z,85.43
2022-12-03T22:59:17.084Z,86.09
2022-12-03T23:01:44.932Z,86.30
2022-12-03T23:04:13.098Z,87.14
2022-12-03T23:06:41.179Z,86.14
2022-12-03T23:09:09.697Z,86.25
2022-12-03T23:11:38.000Z,86.59
2022-12-03T23:14:06.027Z,86.15
2022-12-03T23:16:34.367Z,85.85
2022-12-03T23:19:04.273Z,85.37
2022-12-03T23:21:34.304Z,84.39
2022-12-03T23:24:05.211Z,84.41
2022-12-03T23:26:37.659Z,84.53
2022-12-03T23:29:06.675Z,84.85
2022-12-03T23:31:35.278Z,85.25
2022-12-03T23:34:04.200Z,85.26
2022-12-03T23:36:33.341Z,85.42
2022-12-03T23:39:01.358Z,85.69
2022-12-03T23:41:29.324Z,85.24
2022-12-03T23:43:57.663Z,85.13
2022-12-03T23:46:27.668Z,85.39
2022-12-03T23:48:57.013Z,85.11
2022-12-03T23:51:24.941Z,85.09
2022-12-03T23:53:54.768Z,84.42
2022-12-03T23:56:26.539Z,85.05
2022-12-03T23:58:54.545Z,84.25
